Time;durP1;ratioP1;P1;durP2;ratioP2;P2;SDS_P1;SDS_P2;PMS_P1;PMS_P2;Temp;Humidity;BMP_temperature;BMP_pressure;BME280_temperature;BME280_humidity;BME280_pressure;Samples;Min_cycle;Max_cycle;Signal;HPM_P1;HPM_P2
2022/12/05 00:01:20;;;;;;;35.40;12.93;;;4.60;99.90;;;;;;5030434;28;20112;-67
2022/12/05 00:03:47;;;;;;;35.40;14.15;;;4.50;99.90;;;;;;5014338;28;20074;-67
2022/12/05 00:06:13;;;;;;;35.50;13.93;;;4.50;99.90;;;;;;5014980;28;20026;-67
2022/12/05 00:08:39;;;;;;;36.85;13.75;;;4.60;99.90;;;;;;5015017;28;20037;-67
2022/12/05 00:11:11;;;;;;;38.28;14.05;;;4.30;99.90;;;;;;5013691;28;20030;-67
2022/12/05 00:13:39;;;;;;;35.80;14.25;;;4.30;99.90;;;;;;5014888;28;20059;-67
2022/12/05 00:16:07;;;;;;;35.65;15.38;;;4.40;99.90;;;;;;5013876;28;20034;-67
2022/12/05 00:18:33;;;;;;;36.00;13.55;;;4.50;99.90;;;;;;5014836;28;20025;-67
2022/12/05 00:20:58;;;;;;;31.45;13.20;;;4.50;99.90;;;;;;5013750;28;20021;-67
2022/12/05 00:23:24;;;;;;;33.97;13.23;;;4.50;99.90;;;;;;5013374;28;20057;-67
2022/12/05 00:25:49;;;;;;;42.15;13.68;;;4.60;99.90;;;;;;5013468;28;20045;-67
2022/12/05 00:28:15;;;;;;;39.03;13.05;;;4.50;99.90;;;;;;5014803;28;20097;-67
2022/12/05 00:30:40;;;;;;;31.85;13.20;;;4.60;99.90;;;;;;5013634;28;20018;-67
2022/12/05 00:33:06;;;;;;;32.55;13.13;;;4.60;99.90;;;;;;5014820;28;20026;-67
2022/12/05 00:35:32;;;;;;;30.50;12.55;;;4.60;99.90;;;;;;5013852;28;20054;-67
2022/12/05 00:37:58;;;;;;;36.92;12.85;;;4.60;99.90;;;;;;5013582;28;20083;-67
2022/12/05 00:40:23;;;;;;;35.50;13.10;;;4.50;99.90;;;;;;5014381;28;20034;-67
2022/12/05 00:42:49;;;;;;;38.08;12.57;;;4.40;99.90;;;;;;5012988;28;20037;-67
2022/12/05 00:45:14;;;;;;;37.95;13.90;;;4.50;99.90;;;;;;5014367;28;20026;-67
2022/12/05 00:47:40;;;;;;;34.78;13.38;;;4.50;99.90;;;;;;5013200;28;20033;-68
2022/12/05 00:50:06;;;;;;;38.03;13.25;;;4.50;99.90;;;;;;5013299;28;20026;-67
2022/12/05 00:52:32;;;;;;;30.27;13.23;;;4.50;99.90;;;;;;5014502;28;20026;-67
2022/12/05 00:54:57;;;;;;;30.33;12.88;;;4.60;99.90;;;;;;5012928;28;20038;-67
2022/12/05 00:57:23;;;;;;;32.90;13.18;;;4.50;99.90;;;;;;5014411;28;20030;-67
2022/12/05 00:59:49;;;;;;;26.77;12.98;;;4.60;99.90;;;;;;5012861;28;20025;-67
2022/12/05 01:02:14;;;;;;;29.05;11.32;;;4.50;99.90;;;;;;5013413;28;20037;-67
2022/12/05 01:04:40;;;;;;;34.80;13.13;;;4.50;99.90;;;;;;5012733;28;20026;-67
2022/12/05 01:07:06;;;;;;;31.30;11.63;;;4.60;99.90;;;;;;5013088;28;20014;-67
2022/12/05 01:09:31;;;;;;;31.23;11.68;;;4.70;99.90;;;;;;5012802;28;20022;-67
2022/12/05 01:11:57;;;;;;;33.80;12.13;;;4.60;99.90;;;;;;5013006;28;20026;-67
2022/12/05 01:14:24;;;;;;;29.23;11.48;;;4.50;99.90;;;;;;5012580;28;20122;-67
2022/12/05 01:16:51;;;;;;;32.05;11.57;;;4.50;99.90;;;;;;5012858;28;20026;-67
2022/12/05 01:19:23;;;;;;;36.60;12.60;;;4.60;99.90;;;;;;5012629;28;20029;-67
2022/12/05 01:21:49;;;;;;;;;;;4.50;99.90;;;;;;5014432;28;20053;-67
2022/12/05 01:24:15;;;;;;;24.67;10.68;;;4.60;99.90;;;;;;5012487;28;19952;-67
2022/12/05 01:26:44;;;;;;;27.13;10.93;;;4.50;99.90;;;;;;5012567;28;20022;-67
2022/12/05 01:29:12;;;;;;;32.80;12.30;;;4.40;99.90;;;;;;5012527;28;20071;-67
2022/12/05 01:31:38;;;;;;;29.73;11.30;;;4.40;99.90;;;;;;5013690;28;20247;-67
2022/12/05 01:34:06;;;;;;;30.42;11.55;;;4.50;99.90;;;;;;5013635;28;20116;-67
2022/12/05 01:36:32;;;;;;;29.63;11.48;;;4.40;99.90;;;;;;5012420;28;20029;-67
2022/12/05 01:38:58;;;;;;;31.23;11.73;;;4.40;99.90;;;;;;5012363;28;20026;-67
2022/12/05 01:41:30;;;;;;;26.88;11.25;;;4.50;99.90;;;;;;5012570;28;20033;-67
2022/12/05 01:44:07;;;;;;;28.40;10.15;;;4.50;99.90;;;;;;5013104;28;20025;-67
2022/12/05 01:46:35;;;;;;;29.42;11.50;;;4.30;99.90;;;;;;5016625;28;20026;-67
2022/12/05 01:49:19;;;;;;;31.83;12.13;;;4.30;99.90;;;;;;5020336;28;20025;-67
2022/12/05 01:51:50;;;;;;;27.80;11.20;;;4.30;99.90;;;;;;5020043;28;20042;-67
2022/12/05 01:54:17;;;;;;;26.63;10.75;;;4.30;99.90;;;;;;5018721;28;20034;-67
2022/12/05 01:56:48;;;;;;;31.23;11.18;;;4.30;99.90;;;;;;5019914;28;20034;-67
2022/12/05 01:59:15;;;;;;;30.30;12.00;;;4.30;99.90;;;;;;5018762;28;20026;-67
2022/12/05 02:01:41;;;;;;;25.15;10.85;;;4.40;99.90;;;;;;5019535;28;20028;-67
2022/12/05 02:04:08;;;;;;;26.08;10.98;;;4.30;99.90;;;;;;5018981;28;20022;-67
2022/12/05 02:06:34;;;;;;;27.52;10.45;;;4.30;99.90;;;;;;5018673;28;20029;-67
2022/12/05 02:09:00;;;;;;;25.55;10.48;;;4.20;99.90;;;;;;5019934;28;20026;-67
2022/12/05 02:11:28;;;;;;;24.02;10.52;;;4.20;99.90;;;;;;5019792;28;20026;-67
2022/12/05 02:14:01;;;;;;;23.05;9.98;;;4.10;99.90;;;;;;5018828;28;20469;-67
2022/12/05 02:16:44;;;;;;;25.83;10.55;;;4.00;99.90;;;;;;5019556;28;20022;-67
2022/12/05 02:19:51;;;;;;;30.98;11.63;;;4.00;99.90;;;;;;5019454;28;20109;-67
2022/12/05 02:22:38;;;;;;;24.65;10.45;;;4.00;99.90;;;;;;5020053;28;20029;-67
2022/12/05 02:25:11;;;;;;;25.95;9.90;;;4.00;99.90;;;;;;5018444;28;20033;-67
2022/12/05 02:28:09;;;;;;;24.92;10.30;;;4.00;99.90;;;;;;5019417;28;20029;-67
2022/12/05 02:30:42;;;;;;;29.05;10.25;;;3.90;99.90;;;;;;5019824;28;20100;-67
2022/12/05 02:33:32;;;;;;;27.73;9.63;;;3.80;99.90;;;;;;5019550;28;20034;-67
2022/12/05 02:36:06;;;;;;;31.15;10.75;;;3.70;99.90;;;;;;5019060;28;20037;-67
2022/12/05 02:38:43;;;;;;;30.88;10.82;;;3.70;99.90;;;;;;5019715;28;20049;-67
2022/12/05 02:41:25;;;;;;;25.73;10.15;;;3.60;99.90;;;;;;5018440;28;20038;-67
2022/12/05 02:44:02;;;;;;;26.27;9.23;;;3.60;99.90;;;;;;5018213;28;20061;-67
2022/12/05 02:46:30;;;;;;;26.77;11.50;;;3.60;99.90;;;;;;5018442;28;20037;-67
2022/12/05 02:49:01;;;;;;;27.55;11.73;;;3.70;99.90;;;;;;5018309;28;20058;-67
2022/12/05 02:51:31;;;;;;;27.55;10.75;;;3.70;99.90;;;;;;5019173;28;20028;-67
2022/12/05 02:54:04;;;;;;;22.95;9.93;;;3.60;99.90;;;;;;5019646;28;20057;-67
2022/12/05 02:56:33;;;;;;;26.90;10.18;;;3.60;99.90;;;;;;5019075;28;20018;-67
2022/12/05 02:58:59;;;;;;;24.73;10.07;;;3.70;99.90;;;;;;5014507;28;20025;-67
2022/12/05 03:01:29;;;;;;;26.67;10.65;;;3.70;99.90;;;;;;5015894;28;20018;-67
2022/12/05 03:03:56;;;;;;;24.63;10.30;;;3.70;99.90;;;;;;5014933;28;20021;-67
2022/12/05 03:06:27;;;;;;;23.77;10.27;;;3.80;99.90;;;;;;5015068;28;20026;-67
2022/12/05 03:09:02;;;;;;;20.38;9.05;;;3.80;99.90;;;;;;5015287;28;20022;-67
2022/12/05 03:11:33;;;;;;;24.17;9.38;;;3.90;99.90;;;;;;5014983;28;20030;-67
2022/12/05 03:14:02;;;;;;;21.90;9.10;;;3.90;99.90;;;;;;5016349;28;20137;-67
2022/12/05 03:16:36;;;;;;;24.55;9.80;;;3.80;99.90;;;;;;5015180;28;20029;-67
2022/12/05 03:19:09;;;;;;;19.92;8.55;;;3.70;99.90;;;;;;5015652;28;20025;-67
2022/12/05 03:21:42;;;;;;;24.08;9.38;;;3.80;99.90;;;;;;5015240;28;20029;-67
2022/12/05 03:24:12;;;;;;;20.33;9.40;;;3.90;99.90;;;;;;5014674;28;20053;-67
2022/12/05 03:26:56;;;;;;;21.70;9.93;;;3.90;99.90;;;;;;5014565;28;20025;-67
2022/12/05 03:29:33;;;;;;;20.15;9.27;;;3.80;99.90;;;;;;5016373;28;20022;-67
2022/12/05 03:32:21;;;;;;;21.83;8.98;;;3.70;99.90;;;;;;5014491;28;20044;-67
2022/12/05 03:35:19;;;;;;;19.80;9.07;;;3.70;99.90;;;;;;5014450;28;20033;-67
2022/12/05 03:37:50;;;;;;;19.70;8.90;;;3.80;99.90;;;;;;5015692;28;20030;-67
2022/12/05 03:40:26;;;;;;;17.15;8.63;;;3.80;99.90;;;;;;5015607;28;20034;-67
2022/12/05 03:43:24;;;;;;;20.02;9.95;;;3.80;99.90;;;;;;5014152;28;20030;-67
2022/12/05 03:46:13;;;;;;;20.75;8.57;;;3.80;99.90;;;;;;5009954;28;20029;-67
2022/12/05 03:48:42;;;;;;;19.05;8.95;;;3.70;99.90;;;;;;5014792;28;20026;-67
2022/12/05 03:51:10;;;;;;;23.67;9.65;;;3.60;99.90;;;;;;5014193;28;20053;-67
2022/12/05 03:53:50;;;;;;;23.13;9.90;;;3.50;99.90;;;;;;5015302;28;20124;-67
2022/12/05 03:56:22;;;;;;;23.15;8.82;;;3.60;99.90;;;;;;5015275;28;20044;-67
2022/12/05 03:58:55;;;;;;;22.95;8.43;;;3.70;99.90;;;;;;5015263;28;20038;-67
2022/12/05 04:01:23;;;;;;;21.63;8.90;;;3.60;99.90;;;;;;5014010;28;20053;-67
2022/12/05 04:03:55;;;;;;;17.10;7.85;;;3.70;99.90;;;;;;5015050;28;20145;-67
2022/12/05 04:06:27;;;;;;;;;;;3.70;99.90;;;;;;5015860;28;20028;-67
2022/12/05 04:08:56;;;;;;;;;;;3.80;99.90;;;;;;5015622;28;19906;-67
2022/12/05 04:11:25;;;;;;;22.95;9.55;;;3.80;99.90;;;;;;5015023;28;19905;-69
2022/12/05 04:13:54;;;;;;;18.38;8.25;;;3.80;99.90;;;;;;5014961;28;20030;-69
2022/12/05 04:22:37;;;;;;;21.13;8.45;;;3.90;99.90;;;;;;5015259;28;20493;-67
2022/12/05 04:27:56;;;;;;;19.88;7.93;;;4.00;99.90;;;;;;5015290;28;20029;-67
2022/12/05 04:30:33;;;;;;;15.88;7.63;;;3.90;99.90;;;;;;5014657;28;20026;-67
2022/12/05 04:33:16;;;;;;;18.48;8.27;;;3.90;99.90;;;;;;5014574;28;20648;-67
2022/12/05 04:36:08;;;;;;;16.98;8.13;;;3.80;99.90;;;;;;5013969;28;20081;-67
2022/12/05 04:38:44;;;;;;;20.63;8.77;;;3.80;99.90;;;;;;5014510;28;20084;-67
2022/12/05 04:41:18;;;;;;;18.15;7.88;;;3.80;99.90;;;;;;5014112;28;20070;-67
2022/12/05 04:43:45;;;;;;;20.65;8.90;;;3.80;99.90;;;;;;5013081;28;20026;-67
2022/12/05 04:46:13;;;;;;;15.75;7.70;;;3.80;99.90;;;;;;5014732;28;20113;-67
2022/12/05 04:48:43;;;;;;;24.08;9.20;;;3.80;99.90;;;;;;5013370;28;20030;-67
2022/12/05 04:51:15;;;;;;;18.17;8.65;;;3.80;99.90;;;;;;5013882;28;20088;-67
2022/12/05 04:53:42;;;;;;;15.43;6.95;;;3.80;99.90;;;;;;5014439;28;20029;-67
2022/12/05 04:56:09;;;;;;;17.92;8.50;;;3.80;99.90;;;;;;5014222;28;20041;-67
2022/12/05 04:58:34;;;;;;;17.58;7.93;;;3.90;99.90;;;;;;5014706;28;20052;-67
2022/12/05 05:01:15;;;;;;;19.33;8.32;;;3.90;99.90;;;;;;5013026;28;20018;-67
2022/12/05 05:04:10;;;;;;;18.60;8.65;;;3.80;99.90;;;;;;5013271;28;20026;-67
2022/12/05 05:06:37;;;;;;;20.13;8.23;;;3.80;99.90;;;;;;5014114;28;20050;-67
2022/12/05 05:09:03;;;;;;;20.50;8.50;;;3.90;99.90;;;;;;5013094;28;20026;-67
2022/12/05 05:11:32;;;;;;;19.17;8.45;;;3.90;99.90;;;;;;5012817;28;20485;-67
2022/12/05 05:13:58;;;;;;;20.17;8.60;;;3.90;99.90;;;;;;5014237;28;20033;-67
2022/12/05 05:16:31;;;;;;;16.60;7.68;;;3.90;99.90;;;;;;5013958;28;20022;-67
2022/12/05 05:18:57;;;;;;;16.65;7.35;;;3.80;99.90;;;;;;5014018;28;20057;-67
2022/12/05 05:21:28;;;;;;;17.98;7.97;;;3.90;99.90;;;;;;5013387;28;20054;-67
2022/12/05 05:23:54;;;;;;;16.17;7.80;;;3.90;99.90;;;;;;5012990;28;20032;-67
2022/12/05 05:26:21;;;;;;;15.75;7.32;;;3.90;99.90;;;;;;5013728;28;20604;-67
2022/12/05 05:28:47;;;;;;;17.48;7.53;;;4.00;99.90;;;;;;5013722;28;20032;-67
2022/12/05 05:31:13;;;;;;;15.98;7.15;;;4.00;99.90;;;;;;5014009;28;20026;-67
2022/12/05 05:33:39;;;;;;;18.58;7.57;;;3.90;99.90;;;;;;5012395;28;20051;-67
2022/12/05 05:36:10;;;;;;;18.35;7.57;;;4.00;99.90;;;;;;5012413;28;20056;-67
2022/12/05 05:38:42;;;;;;;18.27;7.28;;;4.00;99.90;;;;;;5013283;28;20030;-67
2022/12/05 05:41:19;;;;;;;21.17;7.53;;;4.00;99.90;;;;;;5012887;28;20030;-67
2022/12/05 05:43:45;;;;;;;18.80;7.30;;;3.90;99.90;;;;;;5013719;28;20045;-67
2022/12/05 05:46:12;;;;;;;22.35;8.75;;;3.90;99.90;;;;;;5013266;28;20026;-67
2022/12/05 05:48:38;;;;;;;16.08;8.07;;;3.90;99.90;;;;;;5012379;28;20113;-67
2022/12/05 05:51:06;;;;;;;19.73;8.25;;;3.90;99.90;;;;;;5012621;28;20057;-67
2022/12/05 05:53:31;;;;;;;17.85;8.45;;;3.90;99.90;;;;;;5036606;22;20042;-68
2022/12/05 05:56:00;;;;;;;20.23;7.97;;;3.90;99.90;;;;;;5013340;28;20038;-67
2022/12/05 05:58:26;;;;;;;16.33;7.70;;;3.90;99.90;;;;;;5012255;28;20104;-68
2022/12/05 06:00:51;;;;;;;17.60;7.28;;;3.90;99.90;;;;;;5013541;28;20109;-68
2022/12/05 06:03:17;;;;;;;16.65;7.93;;;4.00;99.90;;;;;;5013327;28;20069;-68
2022/12/05 06:05:42;;;;;;;18.42;8.15;;;4.10;99.90;;;;;;5012436;28;20113;-68
2022/12/05 06:08:08;;;;;;;16.40;7.38;;;4.10;99.90;;;;;;5013741;28;20057;-67
2022/12/05 06:10:33;;;;;;;20.98;7.65;;;4.10;99.90;;;;;;5012729;28;20026;-67
2022/12/05 06:12:59;;;;;;;19.23;7.63;;;4.20;99.90;;;;;;5012144;28;20022;-68
2022/12/05 06:15:25;;;;;;;20.27;8.45;;;4.30;99.90;;;;;;5013333;28;20057;-68
2022/12/05 06:17:50;;;;;;;22.75;8.48;;;4.40;99.90;;;;;;5013736;28;20073;-68
2022/12/05 06:20:16;;;;;;;19.88;8.60;;;4.40;99.90;;;;;;5013301;28;20026;-68
2022/12/05 06:22:41;;;;;;;22.60;8.20;;;4.50;99.90;;;;;;5013415;28;20114;-68
2022/12/05 06:25:08;;;;;;;19.80;8.60;;;4.50;99.90;;;;;;5012166;28;20026;-68
2022/12/05 06:27:33;;;;;;;22.90;8.80;;;4.50;99.90;;;;;;5013072;28;20029;-68
2022/12/05 06:29:59;;;;;;;22.63;9.82;;;4.50;99.90;;;;;;5013402;28;20026;-68
2022/12/05 06:32:27;;;;;;;21.98;10.23;;;4.50;99.90;;;;;;5013114;28;20021;-68
2022/12/05 06:34:53;;;;;;;22.08;8.13;;;4.50;99.90;;;;;;5015599;28;20041;-68
2022/12/05 06:37:18;;;;;;;18.85;7.82;;;4.60;99.90;;;;;;5015588;28;20026;-68
2022/12/05 06:39:44;;;;;;;19.45;8.82;;;4.60;99.90;;;;;;5016676;28;20381;-68
2022/12/05 06:42:09;;;;;;;20.73;8.20;;;4.60;99.90;;;;;;5015587;28;20037;-68
2022/12/05 06:44:35;;;;;;;19.35;8.07;;;4.60;99.90;;;;;;5015766;28;20389;-68
2022/12/05 06:47:01;;;;;;;22.85;9.05;;;4.60;99.90;;;;;;5015992;28;20054;-68
2022/12/05 06:49:31;;;;;;;25.95;9.95;;;4.50;99.90;;;;;;5016534;28;20060;-68
2022/12/05 06:51:57;;;;;;;23.70;9.52;;;4.50;99.90;;;;;;5015451;28;20028;-68
2022/12/05 06:54:23;;;;;;;24.40;9.90;;;4.50;99.90;;;;;;5015023;28;20044;-68
2022/12/05 06:56:49;;;;;;;32.95;10.40;;;4.50;99.90;;;;;;5015739;28;20022;-68
2022/12/05 06:59:15;;;;;;;26.95;10.00;;;4.50;99.90;;;;;;5015499;28;20028;-68
2022/12/05 07:01:45;;;;;;;24.10;9.77;;;4.50;99.90;;;;;;5016888;28;20029;-68
2022/12/05 07:04:16;;;;;;;24.90;9.68;;;4.50;99.90;;;;;;5016901;28;20076;-68
2022/12/05 07:06:43;;;;;;;20.77;9.65;;;4.60;99.90;;;;;;5015050;28;20033;-68
2022/12/05 07:09:09;;;;;;;22.42;10.00;;;4.50;99.90;;;;;;5016128;28;20025;-68
2022/12/05 07:11:35;;;;;;;26.88;10.02;;;4.50;99.90;;;;;;5016349;28;20025;-68
2022/12/05 07:14:02;;;;;;;24.38;9.80;;;4.50;99.90;;;;;;5016070;28;20018;-67
2022/12/05 07:16:28;;;;;;;22.25;9.48;;;4.50;99.90;;;;;;5014929;28;20167;-68
2022/12/05 07:18:55;;;;;;;23.58;10.40;;;4.60;99.90;;;;;;5014781;28;20131;-68
2022/12/05 07:21:21;;;;;;;23.88;9.75;;;4.60;99.90;;;;;;5016142;28;20061;-68
2022/12/05 07:23:49;;;;;;;22.10;9.73;;;4.60;99.90;;;;;;5015614;28;20046;-68
2022/12/05 07:26:17;;;;;;;19.50;8.70;;;4.50;99.90;;;;;;5014497;28;20029;-68
2022/12/05 07:28:43;;;;;;;21.17;9.07;;;4.50;99.90;;;;;;5015726;28;20136;-68
2022/12/05 07:31:10;;;;;;;26.92;10.40;;;4.40;99.90;;;;;;5015553;28;20026;-68
2022/12/05 07:33:37;;;;;;;29.73;10.02;;;4.40;99.90;;;;;;5014668;28;20061;-68
2022/12/05 07:36:11;;;;;;;25.58;10.57;;;4.40;99.90;;;;;;5014388;28;20508;-68
2022/12/05 07:38:38;;;;;;;28.75;10.98;;;4.30;99.90;;;;;;5015726;28;20032;-68
2022/12/05 07:41:09;;;;;;;31.67;10.52;;;4.30;99.90;;;;;;5014384;28;20030;-68
2022/12/05 07:43:34;;;;;;;29.27;11.23;;;4.30;99.90;;;;;;5014527;28;20029;-68
2022/12/05 07:46:05;;;;;;;27.67;10.73;;;4.30;99.90;;;;;;5015290;28;20319;-68
2022/12/05 07:48:30;;;;;;;26.63;10.95;;;4.30;99.90;;;;;;5015401;28;20028;-67
2022/12/05 07:51:04;;;;;;;29.17;10.43;;;4.30;99.90;;;;;;5014138;28;20113;-68
2022/12/05 07:53:31;;;;;;;29.17;11.45;;;4.30;99.90;;;;;;5015594;28;20057;-68
2022/12/05 07:56:01;;;;;;;28.05;12.02;;;4.30;99.90;;;;;;5015337;28;20030;-68
2022/12/05 07:58:31;;;;;;;28.13;10.88;;;4.30;99.90;;;;;;5014603;28;20093;-68
2022/12/05 08:01:04;;;;;;;25.42;10.10;;;4.30;99.90;;;;;;5013955;28;20093;-68
2022/12/05 08:03:29;;;;;;;30.27;12.00;;;4.30;99.90;;;;;;5015024;28;20022;-68
2022/12/05 08:05:55;;;;;;;34.38;12.23;;;4.30;99.90;;;;;;5013751;28;20022;-68
2022/12/05 08:08:20;;;;;;;27.83;11.10;;;4.30;99.90;;;;;;5013776;28;20026;-67
2022/12/05 08:10:46;;;;;;;35.40;10.85;;;4.10;99.90;;;;;;5013726;28;20026;-68
2022/12/05 08:13:11;;;;;;;24.38;9.70;;;4.20;99.90;;;;;;5014073;28;20049;-67
2022/12/05 08:15:37;;;;;;;24.40;9.95;;;4.30;99.90;;;;;;5014791;28;20040;-67
2022/12/05 08:18:02;;;;;;;23.27;9.75;;;4.30;99.90;;;;;;5015616;28;20028;-68
2022/12/05 08:20:29;;;;;;;24.70;9.18;;;4.20;99.90;;;;;;5014733;28;20022;-68
2022/12/05 08:22:54;;;;;;;20.42;9.50;;;4.30;99.90;;;;;;5014643;28;20030;-67
2022/12/05 08:25:20;;;;;;;23.77;10.30;;;4.30;99.90;;;;;;5013394;28;20033;-67
2022/12/05 08:27:45;;;;;;;29.48;10.57;;;4.30;99.90;;;;;;5014675;28;20018;-67
2022/12/05 08:30:11;;;;;;;21.58;9.43;;;4.30;99.90;;;;;;5014651;28;20053;-67
2022/12/05 08:32:36;;;;;;;24.70;9.30;;;4.30;99.90;;;;;;5013364;28;20058;-67
2022/12/05 08:35:02;;;;;;;24.20;8.68;;;4.30;99.90;;;;;;5013165;28;20022;-68
2022/12/05 08:37:28;;;;;;;30.80;10.35;;;4.20;99.90;;;;;;5013524;28;20076;-67
2022/12/05 08:39:53;;;;;;;22.50;9.23;;;4.20;99.90;;;;;;5013293;28;20084;-67
2022/12/05 08:42:19;;;;;;;27.95;10.23;;;4.20;99.90;;;;;;5013480;28;20033;-67
2022/12/05 08:44:44;;;;;;;24.92;9.48;;;4.20;99.90;;;;;;5013317;28;20030;-67
2022/12/05 08:47:10;;;;;;;25.00;9.55;;;4.20;99.90;;;;;;5014263;28;20026;-67
2022/12/05 08:49:35;;;;;;;21.33;9.10;;;4.30;99.90;;;;;;5014193;28;20026;-68
2022/12/05 08:52:01;;;;;;;23.10;9.68;;;4.20;99.90;;;;;;5014366;28;20101;-68
2022/12/05 08:54:26;;;;;;;24.65;9.52;;;4.20;99.90;;;;;;5013022;28;20037;-68
2022/12/05 08:56:52;;;;;;;27.88;9.55;;;4.30;99.90;;;;;;5013616;28;20076;-68
2022/12/05 08:59:18;;;;;;;21.73;10.05;;;4.30;99.90;;;;;;5012861;28;20022;-67
2022/12/05 09:01:44;;;;;;;28.83;10.50;;;4.20;99.90;;;;;;5013987;28;20026;-67
2022/12/05 09:04:11;;;;;;;21.75;8.63;;;4.20;99.90;;;;;;5013026;28;20105;-68
2022/12/05 09:06:38;;;;;;;27.33;9.82;;;4.30;99.90;;;;;;5015022;28;20101;-67
2022/12/05 09:09:06;;;;;;;23.10;9.73;;;4.30;99.90;;;;;;5014158;28;20022;-67
2022/12/05 09:11:34;;;;;;;22.83;9.57;;;4.30;99.90;;;;;;5012682;28;20022;-67
2022/12/05 09:14:00;;;;;;;29.38;10.00;;;4.20;99.90;;;;;;5012513;28;20500;-67
2022/12/05 09:16:29;;;;;;;24.13;10.07;;;4.20;99.90;;;;;;5013822;28;20030;-67
2022/12/05 09:18:55;;;;;;;32.03;9.88;;;4.20;99.90;;;;;;5013825;28;20029;-67
2022/12/05 09:21:23;;;;;;;31.95;11.18;;;4.30;99.90;;;;;;5012443;28;20030;-68
2022/12/05 09:23:49;;;;;;;28.30;11.45;;;4.10;99.90;;;;;;5013622;28;20034;-67
2022/12/05 09:26:18;;;;;;;24.67;11.52;;;4.10;99.90;;;;;;5013705;28;20026;-68
2022/12/05 09:28:44;;;;;;;30.40;11.40;;;4.30;99.90;;;;;;5013678;28;20033;-68
2022/12/05 09:31:13;;;;;;;25.75;9.55;;;4.40;99.90;;;;;;5013734;28;20022;-68
2022/12/05 09:33:40;;;;;;;27.75;10.48;;;4.40;99.90;;;;;;5012252;28;20508;-68
2022/12/05 09:36:08;;;;;;;22.48;9.85;;;4.50;99.90;;;;;;5013037;28;20030;-68
2022/12/05 09:38:34;;;;;;;20.45;9.38;;;4.60;99.90;;;;;;5012631;28;20128;-67
2022/12/05 09:41:17;;;;;;;25.35;10.15;;;4.80;99.90;;;;;;5013469;28;20109;-67
2022/12/05 09:43:59;;;;;;;25.73;9.10;;;4.90;99.90;;;;;;5012934;28;20079;-67
2022/12/05 09:46:56;;;;;;;24.52;9.55;;;4.90;99.90;;;;;;5012203;28;20018;-67
2022/12/05 09:49:23;;;;;;;23.58;9.27;;;4.80;99.90;;;;;;5012890;28;20057;-68
2022/12/05 09:51:50;;;;;;;26.80;10.05;;;4.90;99.90;;;;;;5012410;28;20026;-68
2022/12/05 09:54:16;;;;;;;25.55;10.02;;;5.00;99.90;;;;;;5013346;28;20026;-68
2022/12/05 09:56:43;;;;;;;23.80;9.30;;;5.00;99.90;;;;;;5012988;28;20033;-67
2022/12/05 09:59:15;;;;;;;28.80;11.00;;;5.00;99.90;;;;;;5012025;28;20362;-67
2022/12/05 10:02:01;;;;;;;23.33;10.13;;;5.10;99.90;;;;;;5013659;28;20057;-68
2022/12/05 10:04:55;;;;;;;25.92;10.63;;;5.10;99.90;;;;;;5013532;28;20030;-67
2022/12/05 10:07:40;;;;;;;32.97;11.65;;;4.90;99.90;;;;;;5014447;28;20072;-67
2022/12/05 10:10:43;;;;;;;26.75;10.65;;;4.90;99.90;;;;;;5016043;28;20026;-67
2022/12/05 10:13:37;;;;;;;27.90;10.30;;;4.80;99.90;;;;;;5015920;28;20030;-67
2022/12/05 10:16:09;;;;;;;22.98;9.90;;;4.90;99.90;;;;;;5017190;28;20080;-67
2022/12/05 10:18:58;;;;;;;23.65;9.80;;;4.90;99.90;;;;;;5017343;28;20037;-67
2022/12/05 10:21:31;;;;;;;23.27;10.35;;;5.10;99.90;;;;;;5017338;28;20060;-67
2022/12/05 10:24:10;;;;;;;24.98;9.70;;;5.20;99.90;;;;;;5017044;28;20026;-67
2022/12/05 10:26:43;;;;;;;23.58;9.95;;;5.20;99.90;;;;;;5017227;28;20026;-67
2022/12/05 10:29:30;;;;;;;23.55;10.75;;;5.20;99.90;;;;;;5015655;28;20029;-67
2022/12/05 10:32:10;;;;;;;21.75;9.48;;;5.10;99.90;;;;;;5015764;28;20026;-67
2022/12/05 10:34:40;;;;;;;28.83;11.35;;;5.20;99.90;;;;;;5016719;28;20029;-67
2022/12/05 10:37:23;;;;;;;24.10;10.55;;;5.00;99.90;;;;;;5015502;28;20029;-67
2022/12/05 10:39:50;;;;;;;30.05;11.48;;;4.90;99.90;;;;;;5016974;28;20022;-67
2022/12/05 10:42:28;;;;;;;28.73;11.45;;;4.80;99.90;;;;;;5016653;28;20021;-67
2022/12/05 10:45:01;;;;;;;29.85;12.15;;;4.90;99.90;;;;;;5015323;28;20022;-67
2022/12/05 10:47:27;;;;;;;32.10;11.75;;;4.90;99.90;;;;;;5017090;28;20026;-67
2022/12/05 10:49:56;;;;;;;21.67;10.13;;;4.90;99.90;;;;;;5016097;28;20029;-67
2022/12/05 10:52:22;;;;;;;27.23;10.80;;;4.90;99.90;;;;;;5016362;28;20033;-67
2022/12/05 10:54:59;;;;;;;25.75;11.15;;;4.90;99.90;;;;;;5015278;28;20030;-67
2022/12/05 10:57:29;;;;;;;19.88;9.85;;;5.00;99.90;;;;;;5015067;28;20041;-67
2022/12/05 10:59:55;;;;;;;21.63;9.40;;;5.10;99.90;;;;;;5015080;28;20037;-67
2022/12/05 11:02:25;;;;;;;24.30;9.30;;;5.10;99.90;;;;;;5016473;28;20029;-67
2022/12/05 11:04:51;;;;;;;21.17;9.77;;;5.30;99.90;;;;;;5014839;28;20109;-67
2022/12/05 11:07:36;;;;;;;22.70;9.13;;;5.30;99.90;;;;;;5016112;28;20022;-67
2022/12/05 11:10:22;;;;;;;26.92;10.88;;;5.40;99.90;;;;;;5016689;28;20053;-67
2022/12/05 11:12:48;;;;;;;25.50;11.32;;;5.40;99.90;;;;;;5016033;28;20037;-67
2022/12/05 11:15:21;;;;;;;27.88;9.55;;;5.50;99.90;;;;;;5015272;28;20025;-67
2022/12/05 11:17:47;;;;;;;23.85;8.60;;;5.50;99.90;;;;;;5014652;28;20464;-67
2022/12/05 11:20:19;;;;;;;23.95;10.57;;;5.40;99.90;;;;;;5015044;28;20037;-67
2022/12/05 11:22:48;;;;;;;20.58;9.40;;;5.50;99.90;;;;;;5016171;28;20034;-67
2022/12/05 11:25:40;;;;;;;19.92;8.45;;;5.40;99.90;;;;;;5015728;28;20084;-68
2022/12/05 11:28:20;;;;;;;17.73;8.60;;;5.50;99.90;;;;;;5012307;28;20040;-67
2022/12/05 11:31:01;;;;;;;21.17;8.95;;;5.50;99.90;;;;;;5014486;28;20188;-67
2022/12/05 11:33:31;;;;;;;21.67;8.90;;;5.60;99.90;;;;;;5014530;28;20072;-67
2022/12/05 11:36:03;;;;;;;18.00;7.72;;;5.50;99.90;;;;;;5014622;28;20045;-67
2022/12/05 11:38:31;;;;;;;16.48;7.68;;;5.50;99.90;;;;;;5015962;28;20026;-67
2022/12/05 11:41:15;;;;;;;23.52;9.02;;;5.50;99.90;;;;;;5015596;28;20028;-67
2022/12/05 11:44:20;;;;;;;17.63;8.27;;;5.50;99.90;;;;;;5015062;28;20029;-67
2022/12/05 11:47:05;;;;;;;14.35;7.03;;;5.60;99.90;;;;;;5015508;28;20061;-67
2022/12/05 11:50:01;;;;;;;15.63;7.35;;;5.50;99.90;;;;;;5015435;28;20080;-67
2022/12/05 11:52:47;;;;;;;14.65;6.93;;;5.50;99.90;;;;;;5014076;28;20030;-67
2022/12/05 11:55:21;;;;;;;10.50;6.00;;;5.60;99.90;;;;;;5028067;22;20050;-67
2022/12/05 11:57:56;;;;;;;10.15;5.40;;;5.60;99.90;;;;;;5031378;28;20056;-67
2022/12/05 12:00:27;;;;;;;10.80;5.57;;;5.60;99.90;;;;;;5014501;28;20045;-67
2022/12/05 12:03:17;;;;;;;12.45;5.78;;;5.60;99.90;;;;;;5013746;28;20030;-67
2022/12/05 12:05:52;;;;;;;11.20;5.50;;;5.60;99.90;;;;;;5015002;28;20018;-67
2022/12/05 12:09:08;;;;;;;12.93;5.97;;;5.50;99.90;;;;;;5014456;28;20022;-67
2022/12/05 12:11:54;;;;;;;14.95;7.10;;;5.60;99.90;;;;;;4974068;28;20027;-67
2022/12/05 12:14:51;;;;;;;16.10;6.38;;;5.60;99.90;;;;;;4974024;28;20103;-67
2022/12/05 12:17:25;;;;;;;13.45;6.32;;;5.70;99.90;;;;;;4973058;28;20030;-67
2022/12/05 12:19:53;;;;;;;13.45;6.32;;;5.70;99.90;;;;;;4973938;28;20037;-67
2022/12/05 12:22:49;;;;;;;12.32;5.75;;;5.70;99.90;;;;;;4974161;28;20034;-67
2022/12/05 12:25:36;;;;;;;13.70;5.95;;;5.70;99.90;;;;;;4973659;28;20031;-67
2022/12/05 12:28:19;;;;;;;11.55;5.20;;;5.70;99.90;;;;;;4973736;28;20105;-67
2022/12/05 12:31:03;;;;;;;10.55;5.38;;;5.60;99.90;;;;;;4973849;28;20035;-67
2022/12/05 12:33:37;;;;;;;11.73;5.20;;;5.60;99.90;;;;;;4973517;28;20043;-67
2022/12/05 12:36:09;;;;;;;9.85;5.70;;;5.50;99.90;;;;;;4957141;28;20482;-67
2022/12/05 12:39:33;;;;;;;18.48;8.80;;;5.50;99.90;;;;;;4973507;28;20031;-67
2022/12/05 12:42:16;;;;;;;11.35;5.65;;;5.60;99.90;;;;;;4900248;29;20130;-67
2022/12/05 12:44:54;;;;;;;12.23;6.15;;;5.60;99.90;;;;;;4915729;29;20035;-67
2022/12/05 12:47:42;;;;;;;15.13;7.32;;;5.50;99.90;;;;;;4926366;29;20062;-67
2022/12/05 12:50:22;;;;;;;13.02;6.88;;;5.40;99.90;;;;;;4954209;29;20063;-67
2022/12/05 12:53:12;;;;;;;11.02;6.20;;;5.50;99.90;;;;;;4937835;29;20035;-67
2022/12/05 12:55:49;;;;;;;10.80;5.72;;;5.50;99.90;;;;;;4937669;29;20039;-67
2022/12/05 12:58:43;;;;;;;11.23;5.57;;;5.60;99.90;;;;;;4938338;29;20027;-67
2022/12/05 13:01:20;;;;;;;11.27;5.53;;;5.60;99.90;;;;;;4937838;29;20041;-67
2022/12/05 13:04:01;;;;;;;12.18;5.70;;;5.70;99.90;;;;;;4937439;29;20035;-67
2022/12/05 13:06:55;;;;;;;8.77;5.25;;;5.70;99.90;;;;;;4953915;29;20038;-67
2022/12/05 13:09:56;;;;;;;11.00;5.72;;;5.70;99.90;;;;;;4937427;29;20030;-67
2022/12/05 13:12:27;;;;;;;12.27;5.78;;;5.60;99.90;;;;;;4908851;29;20031;-67
2022/12/05 13:14:59;;;;;;;9.98;5.07;;;5.60;99.90;;;;;;4934201;29;20043;-67
2022/12/05 13:17:26;;;;;;;11.13;5.30;;;5.60;99.90;;;;;;4934324;29;20028;-67